Time;durP1;ratioP1;P1;durP2;ratioP2;P2;SDS_P1;SDS_P2;PMS_P1;PMS_P2;Temp;Humidity;BMP_temperature;BMP_pressure;BME280_temperature;BME280_humidity;BME280_pressure;Samples;Min_cycle;Max_cycle;Signal;HPM_P1;HPM_P2
2023/04/28 00:01:18;;;;;;;0.82;0.20;;;17.80;77.90;;;;;;5019223;28;20048;-72
2023/04/28 00:03:44;;;;;;;0.40;0.40;;;17.80;77.90;;;;;;5036837;28;20101;-73
2023/04/28 00:06:10;;;;;;;0.28;0.20;;;17.80;77.90;;;;;;5036485;28;20057;-72
2023/04/28 00:08:36;;;;;;;0.20;0.20;;;17.80;78.20;;;;;;5035221;28;20083;-72
2023/04/28 00:11:01;;;;;;;1.40;0.30;;;17.80;78.10;;;;;;5035494;28;20073;-72
2023/04/28 00:13:27;;;;;;;0.55;0.20;;;17.80;78.10;;;;;;5036276;28;20640;-72
2023/04/28 00:15:53;;;;;;;0.20;0.20;;;17.80;78.10;;;;;;5035182;28;20092;-72
2023/04/28 00:18:19;;;;;;;1.23;0.30;;;17.80;78.20;;;;;;5036104;28;20435;-72
2023/04/28 00:20:45;;;;;;;1.50;0.20;;;17.80;78.20;;;;;;5035303;28;20136;-72
2023/04/28 00:23:10;;;;;;;0.30;0.20;;;17.80;78.30;;;;;;5035196;28;20048;-72
2023/04/28 00:25:36;;;;;;;0.55;0.30;;;17.80;78.30;;;;;;5036342;28;20031;-72
2023/04/28 00:28:02;;;;;;;0.43;0.22;;;17.70;78.20;;;;;;5036294;28;20030;-72
2023/04/28 00:30:29;;;;;;;0.70;0.30;;;17.80;78.40;;;;;;5035819;28;20095;-72
2023/04/28 00:32:54;;;;;;;0.50;0.20;;;17.70;78.30;;;;;;5036236;28;20051;-72
2023/04/28 00:35:20;;;;;;;0.65;0.20;;;17.80;78.40;;;;;;5034776;28;20538;-72
2023/04/28 00:37:46;;;;;;;0.70;0.28;;;17.70;78.40;;;;;;5036148;28;20029;-72
2023/04/28 00:40:12;;;;;;;0.65;0.28;;;17.80;78.50;;;;;;5018376;28;20018;-72
2023/04/28 00:42:37;;;;;;;0.20;0.20;;;17.70;78.40;;;;;;5035768;28;20021;-72
2023/04/28 00:45:05;;;;;;;2.63;0.20;;;17.70;78.50;;;;;;5035678;28;20036;-72
2023/04/28 00:47:34;;;;;;;0.43;0.30;;;17.80;78.50;;;;;;5018382;28;20025;-72
2023/04/28 00:50:00;;;;;;;0.30;0.20;;;17.70;78.50;;;;;;5034655;28;20030;-72
2023/04/28 00:52:26;;;;;;;0.50;0.20;;;17.70;78.70;;;;;;5035674;28;20053;-72
2023/04/28 00:54:52;;;;;;;0.65;0.30;;;17.70;78.70;;;;;;5017922;28;20511;-72
2023/04/28 00:57:17;;;;;;;0.22;0.20;;;17.70;78.70;;;;;;5002627;28;20053;-72
2023/04/28 00:59:43;;;;;;;0.20;0.20;;;17.70;78.70;;;;;;5014247;28;20111;-72
2023/04/28 01:02:15;;;;;;;0.43;0.25;;;17.70;78.60;;;;;;5025242;28;20029;-71
2023/04/28 01:04:42;;;;;;;1.52;0.20;;;17.70;78.70;;;;;;5018963;28;20033;-72
2023/04/28 01:07:08;;;;;;;0.20;0.20;;;17.70;78.70;;;;;;5017887;28;20045;-72
2023/04/28 01:09:33;;;;;;;0.20;0.10;;;17.70;78.80;;;;;;5035701;28;20025;-72
2023/04/28 01:11:59;;;;;;;0.38;0.20;;;17.70;78.90;;;;;;5034318;28;20029;-72
2023/04/28 01:14:25;;;;;;;1.27;0.50;;;17.70;78.80;;;;;;5033956;28;20025;-72
2023/04/28 01:16:50;;;;;;;1.13;0.45;;;17.70;79.00;;;;;;5035476;28;20059;-72
2023/04/28 01:19:21;;;;;;;0.75;0.30;;;17.70;78.90;;;;;;5035172;28;20108;-72
2023/04/28 01:21:47;;;;;;;0.65;0.35;;;17.70;79.10;;;;;;5034094;28;20025;-72
2023/04/28 01:24:12;;;;;;;0.25;0.25;;;17.70;79.00;;;;;;5033893;28;20032;-72
2023/04/28 01:26:38;;;;;;;0.30;0.10;;;17.70;79.00;;;;;;5035222;28;20026;-72
2023/04/28 01:29:04;;;;;;;0.77;0.17;;;17.70;79.00;;;;;;5033319;28;20117;-72
2023/04/28 01:31:29;;;;;;;1.58;0.43;;;17.70;79.10;;;;;;5034869;28;20029;-72
2023/04/28 01:33:56;;;;;;;0.55;0.20;;;17.70;79.10;;;;;;5034823;28;20025;-72
2023/04/28 01:36:22;;;;;;;0.80;0.15;;;17.70;79.10;;;;;;5034969;28;20045;-73
2023/04/28 01:38:49;;;;;;;0.55;0.17;;;17.70;79.10;;;;;;5034946;28;20018;-72
2023/04/28 01:41:14;;;;;;;0.55;0.20;;;17.70;79.10;;;;;;5033233;28;20376;-72
2023/04/28 01:43:40;;;;;;;0.10;0.10;;;17.70;79.10;;;;;;5034546;28;20025;-72
2023/04/28 01:46:05;;;;;;;0.20;0.20;;;17.70;79.10;;;;;;5033567;28;20027;-72
2023/04/28 01:48:31;;;;;;;0.32;0.20;;;17.70;79.10;;;;;;5019966;28;20032;-72
2023/04/28 01:50:57;;;;;;;0.20;0.20;;;17.70;79.10;;;;;;5015061;28;20041;-72
2023/04/28 01:53:22;;;;;;;3.00;0.20;;;17.70;79.10;;;;;;5018025;28;20052;-73
2023/04/28 01:55:48;;;;;;;0.15;0.13;;;17.70;79.10;;;;;;5034333;28;20073;-72
2023/04/28 01:58:14;;;;;;;1.17;0.32;;;17.60;79.00;;;;;;5034482;28;20021;-72
2023/04/28 02:00:39;;;;;;;0.35;0.20;;;17.60;79.00;;;;;;5034564;28;20032;-72
2023/04/28 02:03:05;;;;;;;0.20;0.20;;;17.60;79.00;;;;;;5034537;28;20029;-72
2023/04/28 02:05:31;;;;;;;4.22;0.30;;;17.70;79.10;;;;;;5034237;28;20033;-72
2023/04/28 02:07:56;;;;;;;0.98;0.35;;;17.70;79.20;;;;;;5034295;28;20438;-72
2023/04/28 02:10:22;;;;;;;0.20;0.10;;;17.70;79.10;;;;;;5033837;28;20018;-72
2023/04/28 02:12:47;;;;;;;0.20;0.10;;;17.60;79.10;;;;;;5032716;28;20032;-72
2023/04/28 02:15:13;;;;;;;1.30;0.35;;;17.60;79.10;;;;;;5034156;28;20052;-72
2023/04/28 02:17:39;;;;;;;0.57;0.15;;;17.60;79.10;;;;;;5032809;28;20499;-72
2023/04/28 02:20:05;;;;;;;0.32;0.10;;;17.70;79.20;;;;;;5034205;28;20018;-72
2023/04/28 02:22:30;;;;;;;0.85;0.32;;;17.60;79.30;;;;;;5034071;28;20040;-72
2023/04/28 02:24:56;;;;;;;2.25;0.28;;;17.70;79.30;;;;;;5033852;28;20025;-72
2023/04/28 02:27:22;;;;;;;0.52;0.20;;;17.60;79.20;;;;;;5032825;28;20056;-72
2023/04/28 02:29:48;;;;;;;0.20;0.20;;;17.70;79.30;;;;;;5033893;28;20373;-72
2023/04/28 02:32:13;;;;;;;1.13;0.10;;;17.70;79.30;;;;;;5032660;28;20040;-71
2023/04/28 02:34:39;;;;;;;0.35;0.17;;;17.60;79.30;;;;;;5033440;28;20026;-71
2023/04/28 02:37:05;;;;;;;0.80;0.30;;;17.60;79.40;;;;;;5033747;28;20018;-72
2023/04/28 02:39:31;;;;;;;0.30;0.20;;;17.60;79.30;;;;;;5032278;28;20483;-72
2023/04/28 02:41:57;;;;;;;1.60;0.22;;;17.60;79.30;;;;;;5033883;28;20018;-72
2023/04/28 02:44:23;;;;;;;1.35;0.30;;;17.60;79.40;;;;;;5033452;28;20396;-72
2023/04/28 02:46:49;;;;;;;0.20;0.20;;;17.60;79.40;;;;;;5033556;28;20118;-72
2023/04/28 02:49:14;;;;;;;1.00;0.20;;;17.60;79.50;;;;;;5033641;28;20468;-72
2023/04/28 02:51:40;;;;;;;2.92;0.28;;;17.60;79.40;;;;;;5033520;28;20029;-72
2023/04/28 02:54:06;;;;;;;0.40;0.25;;;17.60;79.40;;;;;;5033236;28;20121;-72
2023/04/28 02:56:32;;;;;;;0.22;0.22;;;17.60;79.40;;;;;;5031861;28;20132;-72
2023/04/28 02:58:57;;;;;;;0.82;0.50;;;17.60;79.40;;;;;;5032295;28;20071;-72
2023/04/28 03:01:23;;;;;;;0.22;0.20;;;17.60;79.50;;;;;;5033168;28;20018;-72
2023/04/28 03:03:49;;;;;;;0.10;0.10;;;17.60;79.50;;;;;;5032246;28;20032;-72
2023/04/28 03:06:15;;;;;;;1.35;0.10;;;17.60;79.50;;;;;;5033563;28;20021;-72
2023/04/28 03:08:40;;;;;;;0.10;0.10;;;17.60;79.40;;;;;;5032919;28;20053;-72
2023/04/28 03:11:06;;;;;;;0.52;0.30;;;17.60;79.50;;;;;;5033385;28;20014;-72
2023/04/28 03:13:32;;;;;;;0.38;0.35;;;17.60;79.50;;;;;;5031856;28;20076;-72
2023/04/28 03:15:57;;;;;;;1.40;0.35;;;17.60;79.50;;;;;;5033221;28;20025;-72
2023/04/28 03:18:23;;;;;;;0.30;0.25;;;17.60;79.50;;;;;;5033086;28;20021;-72
2023/04/28 03:20:49;;;;;;;1.88;0.28;;;17.60;79.50;;;;;;5031860;28;20025;-72
2023/04/28 03:23:14;;;;;;;0.32;0.32;;;17.60;79.60;;;;;;5031570;28;20036;-72
2023/04/28 03:25:40;;;;;;;0.43;0.20;;;17.60;79.50;;;;;;5031741;28;20026;-72
2023/04/28 03:28:06;;;;;;;0.50;0.40;;;17.60;79.50;;;;;;5031946;28;20476;-72
2023/04/28 03:30:31;;;;;;;0.20;0.20;;;17.60;79.60;;;;;;5031656;28;20025;-72
2023/04/28 03:32:57;;;;;;;0.20;0.20;;;17.60;79.60;;;;;;5031656;28;20139;-72
2023/04/28 03:35:23;;;;;;;2.85;0.25;;;17.60;79.50;;;;;;5032805;28;20030;-72
2023/04/28 03:37:48;;;;;;;0.30;0.30;;;17.60;79.60;;;;;;5031312;28;20431;-72
2023/04/28 03:40:14;;;;;;;0.22;0.20;;;17.60;79.80;;;;;;5032990;28;20017;-72
2023/04/28 03:42:40;;;;;;;0.28;0.25;;;17.60;79.60;;;;;;5032822;28;20028;-73
2023/04/28 03:45:06;;;;;;;1.13;0.30;;;17.60;79.70;;;;;;5031570;28;20025;-72
2023/04/28 03:47:32;;;;;;;0.35;0.30;;;17.60;79.70;;;;;;5033141;28;20030;-72
2023/04/28 03:49:58;;;;;;;0.47;0.38;;;17.60;79.70;;;;;;5032930;28;20026;-73
2023/04/28 03:52:24;;;;;;;0.88;0.30;;;17.60;79.70;;;;;;5032609;28;20117;-73
2023/04/28 03:54:50;;;;;;;0.30;0.22;;;17.60;79.70;;;;;;5031301;28;20076;-72
2023/04/28 03:57:16;;;;;;;0.28;0.28;;;17.60;79.70;;;;;;5032446;28;20057;-72
2023/04/28 03:59:41;;;;;;;0.30;0.30;;;17.60;79.80;;;;;;5032694;28;20022;-73
2023/04/28 04:02:07;;;;;;;0.20;0.20;;;17.60;79.70;;;;;;5032573;28;20094;-73
2023/04/28 04:04:33;;;;;;;0.20;0.20;;;17.60;79.70;;;;;;5032843;28;20076;-72
2023/04/28 04:06:58;;;;;;;0.55;0.20;;;17.60;79.80;;;;;;5032540;28;20029;-72
2023/04/28 04:09:24;;;;;;;0.52;0.25;;;17.60;79.80;;;;;;5032643;28;20104;-72
2023/04/28 04:11:50;;;;;;;0.43;0.28;;;17.60;79.80;;;;;;5032818;28;20026;-72
2023/04/28 04:14:15;;;;;;;0.80;0.40;;;17.60;79.80;;;;;;5032420;28;20026;-72
2023/04/28 04:16:41;;;;;;;0.45;0.30;;;17.60;79.70;;;;;;5031511;28;20025;-72
2023/04/28 04:19:07;;;;;;;0.30;0.30;;;17.50;79.70;;;;;;5032607;28;20026;-72
2023/04/28 04:21:32;;;;;;;0.43;0.30;;;17.60;79.80;;;;;;5032462;28;20056;-72
2023/04/28 04:23:58;;;;;;;0.40;0.30;;;17.50;79.80;;;;;;5032652;28;20396;-72
2023/04/28 04:26:24;;;;;;;0.52;0.30;;;17.50;79.80;;;;;;5032636;28;20030;-72
2023/04/28 04:28:50;;;;;;;0.30;0.30;;;17.60;79.80;;;;;;5032479;28;20380;-72
2023/04/28 04:31:17;;;;;;;0.40;0.40;;;17.60;79.80;;;;;;5031263;28;20091;-72
2023/04/28 04:33:42;;;;;;;0.77;0.43;;;17.60;79.80;;;;;;5031465;28;20372;-72
2023/04/28 04:36:08;;;;;;;0.75;0.30;;;17.50;79.80;;;;;;5035948;28;20037;-72
2023/04/28 04:38:33;;;;;;;0.22;0.22;;;17.60;79.90;;;;;;5036154;28;20060;-72
2023/04/28 04:40:59;;;;;;;0.30;0.30;;;17.50;79.80;;;;;;5036134;28;20033;-72
2023/04/28 04:43:25;;;;;;;0.73;0.28;;;17.50;79.80;;;;;;5035913;28;20021;-72
2023/04/28 04:45:50;;;;;;;1.25;0.40;;;17.60;79.90;;;;;;5036022;28;20029;-72
2023/04/28 04:48:16;;;;;;;0.38;0.30;;;17.50;79.80;;;;;;5034778;28;20056;-72
2023/04/28 04:50:43;;;;;;;0.40;0.30;;;17.50;79.70;;;;;;5035561;28;20025;-72
2023/04/28 04:53:08;;;;;;;0.20;0.20;;;17.50;79.80;;;;;;5035823;28;20492;-72
2023/04/28 04:55:34;;;;;;;0.20;0.20;;;17.50;79.70;;;;;;5035254;28;20028;-72
2023/04/28 04:58:00;;;;;;;0.20;0.20;;;17.50;79.70;;;;;;5018048;28;20079;-72
2023/04/28 05:00:26;;;;;;;0.30;0.30;;;17.50;79.80;;;;;;5035624;28;20075;-72
2023/04/28 05:02:51;;;;;;;0.60;0.20;;;17.50;79.90;;;;;;5034040;28;20124;-72
2023/04/28 05:05:17;;;;;;;0.50;0.40;;;17.50;79.70;;;;;;5034059;28;20030;-72
2023/04/28 05:07:43;;;;;;;1.05;0.25;;;17.50;80.00;;;;;;5035187;28;20030;-73
2023/04/28 05:10:10;;;;;;;0.57;0.32;;;17.50;80.00;;;;;;5035395;28;20033;-72
2023/04/28 05:12:37;;;;;;;0.95;0.47;;;17.50;80.00;;;;;;5035350;28;20155;-72
2023/04/28 05:15:06;;;;;;;0.35;0.22;;;17.50;80.10;;;;;;5035376;28;20388;-71
2023/04/28 05:17:32;;;;;;;0.20;0.20;;;17.50;79.80;;;;;;5035238;28;20037;-71
2023/04/28 05:19:58;;;;;;;0.35;0.20;;;17.50;79.50;;;;;;5033742;28;20115;-71
2023/04/28 05:22:24;;;;;;;0.30;0.30;;;17.50;79.30;;;;;;5034046;28;20021;-71
2023/04/28 05:24:50;;;;;;;0.35;0.35;;;17.50;79.20;;;;;;5033966;28;20060;-71
2023/04/28 05:27:17;;;;;;;0.20;0.20;;;17.50;78.60;;;;;;5035180;28;20099;-71
2023/04/28 05:29:42;;;;;;;0.30;0.30;;;17.50;78.40;;;;;;5033743;28;20030;-72
2023/04/28 05:32:08;;;;;;;0.22;0.20;;;17.50;78.30;;;;;;5034906;28;20032;-72
2023/04/28 05:34:33;;;;;;;1.17;0.35;;;17.50;78.20;;;;;;5034676;28;20029;-72
2023/04/28 05:37:00;;;;;;;0.30;0.30;;;17.50;78.00;;;;;;5026439;28;20032;-72
2023/04/28 05:39:25;;;;;;;0.30;0.30;;;17.50;78.00;;;;;;5013517;28;20026;-72
2023/04/28 05:41:51;;;;;;;0.40;0.25;;;17.50;77.80;;;;;;5014257;28;20377;-72
2023/04/28 05:44:17;;;;;;;1.35;0.22;;;17.50;78.80;;;;;;5014537;28;20503;-72
2023/04/28 05:46:42;;;;;;;0.30;0.30;;;17.40;77.60;;;;;;5013261;28;20424;-72
2023/04/28 05:49:09;;;;;;;0.38;0.20;;;17.40;77.50;;;;;;5013227;28;20400;-72
2023/04/28 05:51:34;;;;;;;0.38;0.30;;;17.50;77.50;;;;;;5014231;28;20104;-72
2023/04/28 05:54:00;;;;;;;1.98;0.47;;;17.40;77.40;;;;;;5022754;28;20112;-72
2023/04/28 05:56:26;;;;;;;1.65;0.30;;;17.50;77.60;;;;;;5033845;28;20045;-72
2023/04/28 05:58:52;;;;;;;2.63;0.80;;;17.40;77.50;;;;;;5032810;28;20029;-72
2023/04/28 06:01:17;;;;;;;1.48;0.20;;;17.40;77.90;;;;;;5032621;28;20025;-71
2023/04/28 06:03:43;;;;;;;1.13;0.50;;;17.40;78.00;;;;;;5033556;28;20096;-72
2023/04/28 06:06:09;;;;;;;3.95;0.63;;;17.50;78.40;;;;;;5032730;28;20036;-71
2023/04/28 06:08:35;;;;;;;1.40;0.50;;;17.40;78.40;;;;;;5032564;28;20476;-72
2023/04/28 06:11:00;;;;;;;2.63;0.70;;;17.50;78.50;;;;;;5032390;28;20064;-72
2023/04/28 06:13:26;;;;;;;2.22;0.47;;;17.50;78.50;;;;;;5032534;28;20029;-71
2023/04/28 06:15:52;;;;;;;0.55;0.52;;;17.40;78.50;;;;;;5032099;28;20021;-71
2023/04/28 06:18:17;;;;;;;1.60;0.45;;;17.50;78.60;;;;;;5033450;28;20030;-71
2023/04/28 06:20:43;;;;;;;2.03;0.80;;;17.40;78.60;;;;;;5032437;28;20028;-72
2023/04/28 06:23:09;;;;;;;1.88;0.50;;;17.50;78.60;;;;;;5033543;28;20025;-71
2023/04/28 06:25:35;;;;;;;1.25;0.43;;;17.40;78.50;;;;;;5033494;28;20504;-71
2023/04/28 06:28:01;;;;;;;2.60;0.50;;;17.40;78.60;;;;;;5015747;28;20030;-72
2023/04/28 06:30:27;;;;;;;1.00;0.50;;;17.40;78.60;;;;;;5032377;28;20484;-72
2023/04/28 06:32:52;;;;;;;1.38;0.50;;;17.40;78.50;;;;;;5032994;28;20032;-72
2023/04/28 06:35:18;;;;;;;0.70;0.60;;;17.40;78.50;;;;;;5033397;28;20032;-71
2023/04/28 06:37:44;;;;;;;2.70;0.82;;;17.40;78.50;;;;;;5031906;28;20025;-72
2023/04/28 06:40:10;;;;;;;1.27;0.40;;;17.40;78.50;;;;;;5033159;28;20033;-71
2023/04/28 06:42:35;;;;;;;1.52;0.70;;;17.40;78.50;;;;;;5015570;28;20033;-72
2023/04/28 06:45:01;;;;;;;2.67;0.50;;;17.40;78.40;;;;;;5032021;28;20036;-72
2023/04/28 06:47:27;;;;;;;3.03;0.43;;;17.40;78.40;;;;;;5030893;28;20029;-71
2023/04/28 06:49:53;;;;;;;2.40;0.40;;;17.40;78.30;;;;;;5032982;28;20032;-71
2023/04/28 06:52:20;;;;;;;1.73;0.60;;;17.40;78.30;;;;;;5032753;28;20036;-72
2023/04/28 06:54:46;;;;;;;1.98;0.50;;;17.40;78.30;;;;;;5021097;28;20079;-71
2023/04/28 06:57:12;;;;;;;3.53;0.68;;;17.40;78.20;;;;;;5031143;28;20484;-71
2023/04/28 06:59:38;;;;;;;3.15;0.60;;;17.40;78.30;;;;;;5031797;28;20049;-71
2023/04/28 07:02:04;;;;;;;2.72;0.60;;;17.40;78.20;;;;;;5031332;28;20036;-72
2023/04/28 07:04:29;;;;;;;1.25;0.45;;;17.40;78.20;;;;;;5031443;28;20018;-72
2023/04/28 07:06:55;;;;;;;0.45;0.45;;;17.40;78.20;;;;;;5032687;28;20072;-71
2023/04/28 07:09:20;;;;;;;2.17;0.68;;;17.40;78.10;;;;;;5032695;28;20037;-72
2023/04/28 07:11:46;;;;;;;1.25;0.50;;;17.40;78.10;;;;;;5015271;28;20026;-72
2023/04/28 07:14:12;;;;;;;1.35;0.55;;;17.40;78.10;;;;;;5031319;28;20030;-71
2023/04/28 07:16:37;;;;;;;0.90;0.60;;;17.40;78.10;;;;;;5030992;28;20030;-72
2023/04/28 07:19:03;;;;;;;1.40;0.50;;;17.40;78.00;;;;;;5032614;28;20105;-72
2023/04/28 07:21:28;;;;;;;0.50;0.50;;;17.40;78.00;;;;;;5031280;28;20148;-71
2023/04/28 07:23:55;;;;;;;2.05;0.60;;;17.40;78.00;;;;;;5032217;28;20025;-72
2023/04/28 07:26:22;;;;;;;1.23;0.60;;;17.30;77.90;;;;;;5032522;28;20017;-72
2023/04/28 07:28:47;;;;;;;1.65;0.57;;;17.40;77.90;;;;;;5032403;28;20026;-71
2023/04/28 07:31:13;;;;;;;1.48;0.50;;;17.40;78.00;;;;;;5032209;28;20384;-71
2023/04/28 07:33:39;;;;;;;1.88;0.50;;;17.30;77.80;;;;;;5032295;28;20029;-71
2023/04/28 07:36:05;;;;;;;0.85;0.60;;;17.30;77.80;;;;;;5030893;28;20036;-72
2023/04/28 07:38:32;;;;;;;1.80;0.55;;;17.30;77.80;;;;;;5031281;28;20021;-71
2023/04/28 07:40:58;;;;;;;1.27;0.40;;;17.40;77.80;;;;;;5031110;28;20045;-72
2023/04/28 07:43:24;;;;;;;1.05;0.60;;;17.30;77.80;;;;;;5032092;28;20483;-71
2023/04/28 07:45:49;;;;;;;0.55;0.55;;;17.30;77.80;;;;;;5030789;28;20026;-71
2023/04/28 07:48:15;;;;;;;0.43;0.40;;;17.30;77.60;;;;;;5032154;28;20030;-72
2023/04/28 07:50:41;;;;;;;3.90;0.70;;;17.30;77.70;;;;;;5032311;28;20104;-72
2023/04/28 07:53:06;;;;;;;1.45;0.50;;;17.30;77.60;;;;;;5032036;28;20500;-72
2023/04/28 07:55:32;;;;;;;1.23;0.65;;;17.30;77.50;;;;;;5030576;28;20037;-71
2023/04/28 07:57:58;;;;;;;2.03;0.52;;;17.30;77.60;;;;;;5030714;28;20127;-71
2023/04/28 08:00:24;;;;;;;0.77;0.52;;;17.30;77.60;;;;;;5030967;28;20474;-72
2023/04/28 08:02:50;;;;;;;0.75;0.60;;;17.30;77.50;;;;;;5014580;28;20025;-72
2023/04/28 08:05:15;;;;;;;0.43;0.43;;;17.30;77.50;;;;;;5032361;28;20028;-71
2023/04/28 08:07:42;;;;;;;1.83;0.50;;;17.30;77.50;;;;;;5014714;28;20018;-72
2023/04/28 08:10:10;;;;;;;1.08;0.65;;;17.30;77.50;;;;;;5033559;28;20387;-71
2023/04/28 08:12:37;;;;;;;0.55;0.45;;;17.30;77.50;;;;;;5035903;28;20519;-71
2023/04/28 08:15:03;;;;;;;1.52;0.57;;;17.30;77.50;;;;;;5035501;28;20159;-72
2023/04/28 08:17:28;;;;;;;1.88;0.70;;;17.30;77.50;;;;;;5034678;28;20600;-71
2023/04/28 08:19:54;;;;;;;0.50;0.40;;;17.30;77.50;;;;;;5035722;28;20035;-71
2023/04/28 08:22:20;;;;;;;1.25;0.63;;;17.30;77.50;;;;;;5034562;28;20049;-71
2023/04/28 08:24:45;;;;;;;0.60;0.30;;;17.30;77.40;;;;;;5035729;28;20021;-71
2023/04/28 08:27:11;;;;;;;0.50;0.40;;;17.30;77.40;;;;;;5035717;28;20036;-72
2023/04/28 08:29:37;;;;;;;0.60;0.35;;;17.30;77.40;;;;;;5034570;28;20100;-72
2023/04/28 08:32:05;;;;;;;0.43;0.40;;;17.30;77.50;;;;;;5035431;28;20404;-72
2023/04/28 08:34:31;;;;;;;0.38;0.38;;;17.30;77.40;;;;;;5035535;28;20080;-72
2023/04/28 08:36:57;;;;;;;0.77;0.50;;;17.30;77.40;;;;;;5035600;28;20403;-72
2023/04/28 08:39:25;;;;;;;1.17;0.40;;;17.30;77.40;;;;;;5017879;28;20018;-71
2023/04/28 08:41:51;;;;;;;0.68;0.40;;;17.30;77.40;;;;;;5018168;28;20021;-72
2023/04/28 08:44:17;;;;;;;0.35;0.35;;;17.30;77.40;;;;;;5033896;28;20476;-72
2023/04/28 08:46:43;;;;;;;0.98;0.60;;;17.30;77.40;;;;;;5035264;28;20013;-72
2023/04/28 08:49:14;;;;;;;0.60;0.50;;;17.30;77.40;;;;;;5034159;28;20033;-72
2023/04/28 08:51:44;;;;;;;0.40;0.40;;;17.20;77.30;;;;;;5035338;28;20108;-72
2023/04/28 08:54:10;;;;;;;0.43;0.30;;;17.30;77.30;;;;;;5033695;28;20180;-72
2023/04/28 08:56:36;;;;;;;0.50;0.40;;;17.20;77.30;;;;;;5033654;28;20060;-71
2023/04/28 08:59:03;;;;;;;0.63;0.50;;;17.20;77.30;;;;;;5033975;28;20400;-71
2023/04/28 09:01:29;;;;;;;0.50;0.28;;;17.20;77.30;;;;;;5017801;28;20048;-72
2023/04/28 09:03:55;;;;;;;0.30;0.30;;;17.20;77.30;;;;;;5017624;28;20032;-71
2023/04/28 09:06:21;;;;;;;0.50;0.50;;;17.30;77.40;;;;;;5034920;28;20025;-71
2023/04/28 09:08:47;;;;;;;0.50;0.50;;;17.20;77.30;;;;;;5034827;28;20033;-72
2023/04/28 09:11:13;;;;;;;1.35;0.52;;;17.20;77.30;;;;;;5034781;28;20017;-71
2023/04/28 09:13:39;;;;;;;0.30;0.30;;;17.30;77.30;;;;;;5017427;28;20033;-72
2023/04/28 09:16:06;;;;;;;0.30;0.22;;;17.20;77.20;;;;;;5033449;28;20032;-71
2023/04/28 09:18:32;;;;;;;0.40;0.32;;;17.20;77.30;;;;;;5034856;28;20039;-72
2023/04/28 09:21:04;;;;;;;0.30;0.30;;;17.20;77.20;;;;;;5016990;28;20034;-71
2023/04/28 09:23:30;;;;;;;0.40;0.40;;;17.20;77.20;;;;;;5033499;28;20026;-73
2023/04/28 09:26:06;;;;;;;0.55;0.50;;;17.20;77.20;;;;;;5034390;28;20087;-72
2023/04/28 09:28:33;;;;;;;0.50;0.50;;;17.30;77.30;;;;;;5034501;28;20030;-72
2023/04/28 09:30:58;;;;;;;0.93;0.40;;;17.20;77.30;;;;;;5033571;28;20033;-72
2023/04/28 09:33:24;;;;;;;1.65;0.73;;;17.20;77.30;;;;;;5033365;28;20033;-72
2023/04/28 09:35:50;;;;;;;0.63;0.40;;;17.20;78.30;;;;;;5033243;28;20025;-72
2023/04/28 09:38:15;;;;;;;0.73;0.50;;;17.20;77.30;;;;;;5034536;28;20018;-71
2023/04/28 09:40:58;;;;;;;0.30;0.30;;;17.20;77.30;;;;;;5034214;28;20494;-72
2023/04/28 09:43:24;;;;;;;0.30;0.30;;;17.20;77.30;;;;;;5032989;28;20025;-72
2023/04/28 09:45:50;;;;;;;0.20;0.20;;;17.20;77.30;;;;;;5034284;28;20025;-71
2023/04/28 09:48:16;;;;;;;0.32;0.32;;;17.20;77.30;;;;;;5034113;28;20396;-71
2023/04/28 09:50:41;;;;;;;0.30;0.30;;;17.20;77.30;;;;;;5034293;28;20030;-71
2023/04/28 09:53:07;;;;;;;0.38;0.38;;;17.30;78.40;;;;;;5033999;28;20423;-71
2023/04/28 09:55:32;;;;;;;0.55;0.47;;;17.20;77.20;;;;;;5032349;28;20029;-72
2023/04/28 09:57:59;;;;;;;0.32;0.30;;;17.20;77.30;;;;;;5016389;28;20037;-73
2023/04/28 10:00:25;;;;;;;0.60;0.43;;;17.20;77.30;;;;;;5032984;28;20387;-72
2023/04/28 10:02:50;;;;;;;0.40;0.40;;;17.20;77.30;;;;;;5032760;28;20033;-72
2023/04/28 10:05:16;;;;;;;0.35;0.35;;;17.20;77.20;;;;;;5033917;28;20022;-71
2023/04/28 10:07:42;;;;;;;0.40;0.40;;;17.20;77.30;;;;;;5032607;28;20056;-72
2023/04/28 10:10:07;;;;;;;0.50;0.35;;;17.20;77.30;;;;;;5032491;28;20060;-71
2023/04/28 10:12:33;;;;;;;0.85;0.45;;;17.20;77.30;;;;;;5032691;28;20030;-72
2023/04/28 10:14:59;;;;;;;0.57;0.47;;;17.20;77.30;;;;;;5033693;28;20025;-72
2023/04/28 10:17:28;;;;;;;0.30;0.30;;;17.20;77.30;;;;;;5032472;28;20029;-71
2023/04/28 10:19:53;;;;;;;0.68;0.30;;;17.20;77.30;;;;;;5033744;28;20021;-72
2023/04/28 10:22:37;;;;;;;0.30;0.30;;;17.20;77.30;;;;;;5032540;28;20026;-71
2023/04/28 10:25:21;;;;;;;0.30;0.30;;;17.20;77.30;;;;;;5033466;28;20025;-71
2023/04/28 10:27:47;;;;;;;0.57;0.30;;;17.20;77.30;;;;;;5033664;28;20052;-71
2023/04/28 10:30:14;;;;;;;0.30;0.30;;;17.20;77.30;;;;;;5015614;28;20472;-71
2023/04/28 10:32:40;;;;;;;0.43;0.32;;;17.20;77.30;;;;;;5015439;28;20456;-71
2023/04/28 10:35:23;;;;;;;0.20;0.20;;;17.20;77.30;;;;;;5015607;28;20109;-72
2023/04/28 10:38:07;;;;;;;0.75;0.32;;;17.20;77.30;;;;;;5033286;28;20032;-71
2023/04/28 10:40:45;;;;;;;0.60;0.40;;;17.20;77.30;;;;;;5033216;28;20029;-71
2023/04/28 10:43:32;;;;;;;0.35;0.30;;;17.20;77.40;;;;;;5016631;28;20040;-72
2023/04/28 10:46:01;;;;;;;0.82;0.40;;;17.20;77.30;;;;;;5033267;28;20040;-72
2023/04/28 10:48:32;;;;;;;0.40;0.40;;;17.20;77.40;;;;;;5031700;28;20038;-71
2023/04/28 10:51:08;;;;;;;0.22;0.22;;;17.20;77.40;;;;;;5033315;28;20029;-72
2023/04/28 10:53:45;;;;;;;0.30;0.30;;;17.20;77.40;;;;;;5032860;28;20030;-72
2023/04/28 10:56:15;;;;;;;0.80;0.30;;;17.20;77.40;;;;;;5032319;28;20037;-71
2023/04/28 10:58:42;;;;;;;0.40;0.30;;;17.20;77.40;;;;;;5030830;28;20032;-72
2023/04/28 11:01:30;;;;;;;1.88;0.32;;;17.20;77.40;;;;;;5032153;28;20488;-71
2023/04/28 11:04:09;;;;;;;0.35;0.20;;;17.20;77.40;;;;;;5032115;28;20022;-72
2023/04/28 11:06:40;;;;;;;0.32;0.32;;;17.20;77.40;;;;;;5031903;28;20018;-72
2023/04/28 11:09:14;;;;;;;0.40;0.40;;;17.20;77.40;;;;;;5031773;28;20025;-71
2023/04/28 11:11:58;;;;;;;0.80;0.43;;;17.20;77.40;;;;;;5032054;28;20053;-71
2023/04/28 11:14:24;;;;;;;0.40;0.30;;;17.20;77.40;;;;;;5031769;28;20029;-71
2023/04/28 11:16:51;;;;;;;0.40;0.40;;;17.20;77.40;;;;;;5031703;28;20032;-71
2023/04/28 11:19:21;;;;;;;0.28;0.22;;;17.20;77.40;;;;;;5030550;28;20021;-72
2023/04/28 11:21:47;;;;;;;1.50;0.30;;;17.20;77.40;;;;;;5031816;28;20029;-71
2023/04/28 11:24:13;;;;;;;0.30;0.30;;;17.20;77.40;;;;;;5014169;28;20029;-72
2023/04/28 11:26:39;;;;;;;0.20;0.20;;;17.20;77.50;;;;;;5030680;28;20044;-71
2023/04/28 11:29:05;;;;;;;0.30;0.30;;;17.20;77.40;;;;;;5030527;28;20116;-72
2023/04/28 11:31:31;;;;;;;0.32;0.32;;;17.20;77.40;;;;;;5031626;28;20104;-71
2023/04/28 11:34:06;;;;;;;0.40;0.40;;;17.20;77.40;;;;;;5031583;28;20487;-71
2023/04/28 11:36:35;;;;;;;0.30;0.30;;;17.20;77.40;;;;;;5029936;28;20029;-72
2023/04/28 11:39:06;;;;;;;0.40;0.38;;;17.20;77.40;;;;;;5031625;28;20017;-72
2023/04/28 11:41:33;;;;;;;0.22;0.22;;;17.20;77.40;;;;;;5030153;28;20021;-71
2023/04/28 11:43:59;;;;;;;0.50;0.50;;;17.20;77.50;;;;;;5029087;28;20113;-71
2023/04/28 11:46:25;;;;;;;0.32;0.28;;;17.20;77.50;;;;;;5030287;28;20079;-72
2023/04/28 11:49:04;;;;;;;0.57;0.32;;;17.20;78.40;;;;;;5010615;28;20034;-71
2023/04/28 11:51:31;;;;;;;0.50;0.20;;;17.30;77.50;;;;;;5011517;28;20095;-72
2023/04/28 11:53:57;;;;;;;0.80;0.20;;;17.20;77.40;;;;;;5010455;28;20025;-72
2023/04/28 11:56:22;;;;;;;0.35;0.30;;;17.30;77.50;;;;;;4982060;28;1420761;-72
2023/04/28 11:59:06;;;;;;;0.50;0.35;;;17.30;77.50;;;;;;5032241;28;20037;-72
2023/04/28 12:01:32;;;;;;;0.50;0.40;;;17.30;78.50;;;;;;5014723;28;20021;-72
2023/04/28 12:03:58;;;;;;;0.40;0.40;;;17.30;77.50;;;;;;5032127;28;20032;-71
2023/04/28 12:06:24;;;;;;;0.43;0.40;;;17.20;77.40;;;;;;5030667;28;20017;-71
2023/04/28 12:08:51;;;;;;;0.40;0.35;;;17.30;77.50;;;;;;5031977;28;20036;-72
2023/04/28 12:11:17;;;;;;;0.35;0.35;;;17.30;77.50;;;;;;5030700;28;20013;-71
2023/04/28 12:13:43;;;;;;;0.30;0.30;;;17.20;77.50;;;;;;5014685;28;20049;-72
2023/04/28 12:16:08;;;;;;;0.20;0.20;;;17.30;77.50;;;;;;5030776;28;20051;-71
2023/04/28 12:18:35;;;;;;;0.40;0.40;;;17.20;77.50;;;;;;5031859;28;20032;-72
2023/04/28 12:21:01;;;;;;;0.40;0.40;;;17.30;77.50;;;;;;5030784;28;20025;-72
2023/04/28 12:23:33;;;;;;;0.30;0.30;;;17.30;77.50;;;;;;5030856;28;20025;-71
2023/04/28 12:25:59;;;;;;;0.65;0.30;;;17.30;77.50;;;;;;5031866;28;20598;-71
2023/04/28 12:28:38;;;;;;;0.90;0.30;;;17.30;77.50;;;;;;5014479;28;20385;-71
2023/04/28 12:31:05;;;;;;;0.85;0.38;;;17.30;77.50;;;;;;5032013;28;20021;-72
2023/04/28 12:33:36;;;;;;;0.40;0.40;;;17.30;77.50;;;;;;5030697;28;20087;-71
2023/04/28 12:36:03;;;;;;;0.30;0.30;;;17.30;77.50;;;;;;5030449;28;20110;-71
2023/04/28 12:38:29;;;;;;;0.75;0.38;;;17.30;77.50;;;;;;5031896;28;20030;-71
2023/04/28 12:40:54;;;;;;;0.38;0.38;;;17.30;77.50;;;;;;5031845;28;20501;-72
2023/04/28 12:43:22;;;;;;;0.30;0.30;;;17.30;77.50;;;;;;5030334;28;20029;-72
2023/04/28 12:45:52;;;;;;;1.10;0.40;;;17.30;77.50;;;;;;5031727;28;20045;-71